Mariana — HP5173 — position and weather

sailwx.info

Track history (hours):
 
Tides and Currents Weather Stations Pressure Air Temp Water Temp Dewpoint Dewpoint Depression Visibility Wind Speed Wind Dir Waves Ship Positions

Mariana

Last reported at 2017-Sep-25 15:00 UTC. Time now 2017-Sep-25 15:04 UTC.
Position N 39°20' W 009°51'.

Length 180 m; draft 6.3 m.

Type: Cargo ship. MMSI: 373923000.

Date/timePositionNaut miles runAvg speedWind from/ knotsBaromVisibWave heightAir tempDewpointWater temp
2017-Sep-25 15:00N 39°20' W 009°51'612.6
2017-Sep-25 14:30N 39°14' W 009°51'612.4
2017-Sep-25 14:00N 39°08' W 009°51'612.7
2017-Sep-25 13:30N 39°02' W 009°51'612.8
2017-Sep-25 13:01N 38°55' W 009°51'612.5
2017-Sep-25 12:31N 38°49' W 009°51'612.7
2017-Sep-25 12:00N 38°43' W 009°51'612.6
2017-Sep-25 11:30N 38°36' W 009°49'612.4
2017-Sep-25 11:00N 38°30' W 009°48'612.0
2017-Sep-25 10:30N 38°25' W 009°46'611.9
2017-Sep-25 10:00N 38°19' W 009°44'612.2
2017-Sep-25 09:30N 38°13' W 009°42'612.1
2017-Sep-25 09:00N 38°07' W 009°41'611.6
2017-Sep-25 08:30N 38°01' W 009°39'612.0
2017-Sep-25 08:00N 37°56' W 009°36'611.5
2017-Sep-25 07:28N 37°50' W 009°34'511.4
2017-Sep-25 07:00N 37°44' W 009°33'612.2
2017-Sep-25 06:30N 37°38' W 009°32'712.3
2017-Sep-25 05:55N 37°31' W 009°30'612.4
2017-Sep-25 05:27N 37°26' W 009°29'611.8
2017-Sep-25 04:59N 37°20' W 009°27'612.2
2017-Sep-25 04:30N 37°15' W 009°25'1412.5
2017-Sep-25 03:22N 37°01' W 009°22'412.1
2017-Sep-25 03:00N 36°56' W 009°20'611.8
2017-Sep-25 02:30N 36°51' W 009°17'612.3
2017-Sep-25 02:00N 36°47' W 009°12'611.6
2017-Sep-25 01:30N 36°43' W 009°06'612.0
2017-Sep-25 01:00N 36°42' W 008°59'611.8
2017-Sep-25 00:30N 36°40' W 008°52'611.9
2017-Sep-25 00:00N 36°38' W 008°45'612.0
2017-Sep-24 23:30N 36°36' W 008°38'612.4
2017-Sep-24 22:59N 36°34' W 008°30'612.2
2017-Sep-24 22:30N 36°32' W 008°23'1212.6
2017-Sep-24 21:32N 36°29' W 008°09'013.0
2017-Sep-24 21:30N 36°28' W 008°08'612.8
2017-Sep-24 21:00N 36°26' W 008°01'1012.6
2017-Sep-24 20:12N 36°23' W 007°49'513.3
2017-Sep-24 19:49N 36°22' W 007°43'513.7
2017-Sep-24 19:29N 36°20' W 007°37'10213.6
2017-Sep-24 11:57N 35°59' W 005°33'612.7
2017-Sep-24 11:31N 36°00' W 005°27'612.3
2017-Sep-24 11:01N 36°02' W 005°19'612.9
2017-Sep-24 10:31N 36°04' W 005°12'  
2017-Sep-21 14:12N 36°41' E 013°33'712.6
2017-Sep-21 13:38N 36°39' E 013°41'212.4
2017-Sep-21 13:30N 36°38' E 013°43'612.2
2017-Sep-21 13:00N 36°36' E 013°50'612.1
2017-Sep-21 12:30N 36°34' E 013°58'612.2
2017-Sep-21 12:00N 36°33' E 014°05'612.3
2017-Sep-21 11:30N 36°31' E 014°12'612.4
2017-Sep-21 11:00N 36°29' E 014°20'612.2
2017-Sep-21 10:30N 36°28' E 014°27'612.3
2017-Sep-21 10:00N 36°26' E 014°34'612.4
2017-Sep-21 09:30N 36°24' E 014°42'41212.6
2017-Sep-20 00:50N 36°24' E 023°13'411.4
2017-Sep-20 00:29N 36°26' E 023°17'612.4
2017-Sep-20 00:00N 36°30' E 023°23'612.6
2017-Sep-19 23:30N 36°35' E 023°29'612.6
2017-Sep-19 23:01N 36°39' E 023°34'612.7
2017-Sep-19 22:31N 36°44' E 023°40'612.6
2017-Sep-19 22:00N 36°49' E 023°43'612.5
2017-Sep-19 21:31N 36°56' E 023°43'612.1
2017-Sep-19 21:00N 37°02' E 023°43'611.7
2017-Sep-19 20:31N 37°07' E 023°43'611.7
2017-Sep-19 20:01N 37°13' E 023°43'611.7
2017-Sep-19 19:31N 37°19' E 023°43'612.2
2017-Sep-19 19:00N 37°25' E 023°43'612.7
2017-Sep-19 18:31N 37°32' E 023°43'612.6
2017-Sep-19 18:01N 37°38' E 023°43'612.5
2017-Sep-19 17:31N 37°44' E 023°40'612.6
2017-Sep-19 17:00N 37°49' E 023°36'4 8.1
2017-Sep-19 16:31N 37°50' E 023°31'0 0.7
2017-Sep-19 16:01N 37°50' E 023°31'0 0.0
2017-Sep-19 15:29N 37°50' E 023°31'0 0.0
2017-Sep-19 14:59N 37°50' E 023°31'0 0.3
2017-Sep-19 14:29N 37°50' E 023°31'0 0.2
2017-Sep-19 13:59N 37°50' E 023°31'0 0.0
2017-Sep-19 13:29N 37°50' E 023°31'0 0.0
2017-Sep-19 12:59N 37°50' E 023°31'0 0.1
2017-Sep-19 12:29N 37°50' E 023°31'0 0.0
2017-Sep-19 11:59N 37°50' E 023°31'0 0.0
2017-Sep-19 11:29N 37°50' E 023°31'0 0.1
2017-Sep-19 10:59N 37°50' E 023°31'0 0.1
2017-Sep-19 10:29N 37°50' E 023°31'0 0.0
2017-Sep-19 09:07N 37°50' E 023°31'0 0.1
2017-Sep-19 08:58N 37°50' E 023°31'0 0.0
2017-Sep-19 08:28N 37°50' E 023°31'0 0.0
2017-Sep-19 07:58N 37°50' E 023°31'0 0.0
2017-Sep-19 07:29N 37°50' E 023°31'0 0.0
2017-Sep-19 06:58N 37°50' E 023°31'0 0.0
2017-Sep-19 06:28N 37°50' E 023°31'0 0.0
2017-Sep-19 05:58N 37°50' E 023°31'0 0.1
2017-Sep-19 05:28N 37°50' E 023°31'0 0.1
2017-Sep-19 04:58N 37°50' E 023°31'0 0.0
2017-Sep-19 04:28N 37°50' E 023°31'0 0.0
2017-Sep-19 03:58N 37°50' E 023°31'0 0.0
2017-Sep-19 03:28N 37°50' E 023°31'0 0.0
2017-Sep-19 02:58N 37°50' E 023°31'0 0.0
2017-Sep-19 02:28N 37°50' E 023°31'0 0.0
2017-Sep-19 01:58N 37°50' E 023°31'0 0.0
2017-Sep-19 01:28N 37°50' E 023°31'0 0.0
2017-Sep-19 00:58N 37°50' E 023°31'0 0.0
2017-Sep-19 00:28N 37°50' E 023°31'0 0.0
2017-Sep-18 23:58N 37°50' E 023°31'0 0.0
2017-Sep-18 23:28N 37°50' E 023°31'0 0.0
2017-Sep-18 22:58N 37°50' E 023°31'0 0.0
2017-Sep-18 22:28N 37°50' E 023°31'0 0.0
2017-Sep-18 21:58N 37°50' E 023°31'0 0.0
2017-Sep-18 21:28N 37°50' E 023°31'0 0.0
2017-Sep-18 20:58N 37°50' E 023°31'0 0.0
2017-Sep-18 20:28N 37°50' E 023°31'0 0.0
2017-Sep-18 19:58N 37°50' E 023°31'0 0.0
2017-Sep-18 19:28N 37°50' E 023°31'0 0.0
2017-Sep-18 18:58N 37°50' E 023°31'0 0.0
2017-Sep-18 18:28N 37°50' E 023°31'0 0.1
2017-Sep-18 17:58N 37°50' E 023°31'0 0.2
2017-Sep-18 17:28N 37°50' E 023°31'0 0.0
2017-Sep-18 16:58N 37°50' E 023°31'0 0.2
2017-Sep-18 16:28N 37°50' E 023°31'1 1.1
2017-Sep-18 16:01N 37°50' E 023°31'2 4.3
2017-Sep-18 15:31N 37°51' E 023°32'4 7.6
2017-Sep-18 15:00N 37°54' E 023°35'2 4.3
2017-Sep-18 14:31N 37°57' E 023°36'1 1.1
2017-Sep-18 13:59N 37°57' E 023°36'0 0.2
2017-Sep-18 13:29N 37°57' E 023°36'0 0.0
2017-Sep-18 12:59N 37°57' E 023°36'0 0.0
2017-Sep-18 12:29N 37°57' E 023°36'0 0.0
2017-Sep-18 11:56N 37°57' E 023°36'0 0.0
2017-Sep-18 11:29N 37°57' E 023°36'0 0.0
2017-Sep-18 10:59N 37°57' E 023°36'0 0.0
2017-Sep-18 10:29N 37°57' E 023°36'0 0.0
2017-Sep-18 09:59N 37°57' E 023°36'0 0.0
2017-Sep-18 09:29N 37°57' E 023°36'0 0.0
2017-Sep-18 08:59N 37°57' E 023°36'0 0.0
2017-Sep-18 08:29N 37°57' E 023°36'0 0.0
2017-Sep-18 07:59N 37°57' E 023°36'0 0.0
2017-Sep-18 07:29N 37°57' E 023°36'0 0.0
2017-Sep-18 06:59N 37°57' E 023°36'0 0.0
2017-Sep-18 06:29N 37°57' E 023°36'0 0.0
2017-Sep-18 05:59N 37°57' E 023°36'0 0.0
2017-Sep-18 05:29N 37°57' E 023°36'0 0.0
2017-Sep-18 04:59N 37°57' E 023°36'0 0.0
2017-Sep-18 04:29N 37°57' E 023°36'0 0.0
2017-Sep-18 03:59N 37°57' E 023°36'0 0.0
2017-Sep-18 03:29N 37°57' E 023°36'0 0.0
2017-Sep-18 02:59N 37°57' E 023°36'0 0.0
2017-Sep-18 02:29N 37°57' E 023°36'0 0.0
2017-Sep-18 01:59N 37°57' E 023°36'0 0.0
2017-Sep-18 01:29N 37°57' E 023°36'0 0.0
2017-Sep-18 00:59N 37°57' E 023°36'0 0.0
2017-Sep-18 00:29N 37°57' E 023°36'0 0.0
2017-Sep-17 23:59N 37°57' E 023°36'0 0.0
2017-Sep-17 23:29N 37°57' E 023°36'0 0.0
2017-Sep-17 22:59N 37°57' E 023°36'0 0.0
2017-Sep-17 22:29N 37°57' E 023°36'0 0.0
2017-Sep-17 21:59N 37°57' E 023°36'0 0.0
2017-Sep-17 21:29N 37°57' E 023°36'0 0.0
2017-Sep-17 20:59N 37°57' E 023°36'0 0.0
2017-Sep-17 20:29N 37°57' E 023°36'0 0.0
2017-Sep-17 19:59N 37°57' E 023°36'0 0.0
2017-Sep-17 19:29N 37°57' E 023°36'0 0.0
2017-Sep-17 18:59N 37°57' E 023°36'0 0.0
2017-Sep-17 18:29N 37°57' E 023°36'0 0.0
2017-Sep-17 17:59N 37°57' E 023°36'0 0.0
2017-Sep-17 17:29N 37°57' E 023°36'0 0.0
2017-Sep-17 16:59N 37°57' E 023°36'0 0.0
2017-Sep-17 16:29N 37°57' E 023°36'0 0.0
2017-Sep-17 15:59N 37°57' E 023°36'0 0.0
2017-Sep-17 15:29N 37°57' E 023°36'0 0.0
2017-Sep-17 14:59N 37°57' E 023°36'0 0.0
2017-Sep-17 14:29N 37°57' E 023°36'0 0.0
2017-Sep-17 13:59N 37°57' E 023°36'0 0.0
2017-Sep-17 13:29N 37°57' E 023°36'0 0.0
2017-Sep-17 12:59N 37°57' E 023°36'0 0.0
2017-Sep-17 12:29N 37°57' E 023°36'0 0.0
2017-Sep-17 11:59N 37°57' E 023°36'0 0.0
2017-Sep-17 11:29N 37°57' E 023°36'0 0.0
2017-Sep-17 10:59N 37°57' E 023°36'0 0.0
2017-Sep-17 10:29N 37°57' E 023°36'0 0.0
2017-Sep-17 09:59N 37°57' E 023°36'0 0.0
2017-Sep-17 09:29N 37°57' E 023°36'0 0.0
2017-Sep-17 08:58N 37°57' E 023°36'0 0.0
2017-Sep-17 08:28N 37°57' E 023°36'0 0.0
2017-Sep-17 07:58N 37°57' E 023°36'0 0.0
2017-Sep-17 07:28N 37°57' E 023°36'0 0.0
2017-Sep-17 06:58N 37°57' E 023°36'0 0.0
2017-Sep-17 06:28N 37°57' E 023°36'0 0.0
2017-Sep-17 05:58N 37°57' E 023°36'0 0.0
2017-Sep-17 05:28N 37°57' E 023°36'0 0.0
2017-Sep-17 04:59N 37°57' E 023°36'0 0.0
2017-Sep-17 04:28N 37°57' E 023°36'0 0.0
2017-Sep-17 03:58N 37°57' E 023°36'0 0.0
2017-Sep-17 03:28N 37°57' E 023°36'0 0.0
2017-Sep-17 02:58N 37°57' E 023°36'0 0.0
2017-Sep-17 02:28N 37°57' E 023°36'0 0.0
2017-Sep-17 01:58N 37°57' E 023°36'0 0.0
2017-Sep-17 01:28N 37°57' E 023°36'0 0.0
2017-Sep-17 00:58N 37°57' E 023°36'0 0.0
2017-Sep-17 00:28N 37°57' E 023°36'0 0.0
2017-Sep-16 23:58N 37°57' E 023°36'0 0.0
2017-Sep-16 23:28N 37°57' E 023°36'0 0.0
2017-Sep-16 22:58N 37°57' E 023°36'0 0.0
2017-Sep-16 22:28N 37°57' E 023°36'0 0.0
2017-Sep-16 21:58N 37°57' E 023°36'0 0.0
2017-Sep-16 21:28N 37°57' E 023°36'0 0.0
2017-Sep-16 20:58N 37°57' E 023°36'0 0.0
2017-Sep-16 20:28N 37°57' E 023°36'0 0.0
2017-Sep-16 19:58N 37°57' E 023°36'0 0.0
2017-Sep-16 19:28N 37°57' E 023°36'0 0.0
2017-Sep-16 18:58N 37°57' E 023°36'0 0.0
2017-Sep-16 18:28N 37°57' E 023°36'0 0.0
2017-Sep-16 17:58N 37°57' E 023°36'0 0.0
2017-Sep-16 17:28N 37°57' E 023°36'0 0.0
2017-Sep-16 16:58N 37°57' E 023°36'0 0.0
2017-Sep-16 16:25N 37°57' E 023°36'0 0.0
2017-Sep-16 15:58N 37°57' E 023°36'0 0.0
2017-Sep-16 15:28N 37°57' E 023°36'0 0.0
2017-Sep-16 14:58N 37°57' E 023°36'0 0.0
2017-Sep-16 14:28N 37°57' E 023°36'0 0.0
2017-Sep-16 13:58N 37°57' E 023°36'0 0.0
2017-Sep-16 13:28N 37°57' E 023°36'0 0.0
2017-Sep-16 12:58N 37°57' E 023°36'0 0.0
2017-Sep-16 12:28N 37°57' E 023°36'0 0.0
2017-Sep-16 11:58N 37°57' E 023°36'0 0.0
2017-Sep-16 11:28N 37°57' E 023°36'0 0.0
2017-Sep-16 10:58N 37°57' E 023°36'0 0.0
2017-Sep-16 10:28N 37°57' E 023°36'0 0.0
2017-Sep-16 09:58N 37°57' E 023°36'0 0.0
2017-Sep-16 09:28N 37°57' E 023°36'0 0.0
2017-Sep-16 08:58N 37°57' E 023°36'0 0.0
2017-Sep-16 08:28N 37°57' E 023°36'0 0.0
2017-Sep-16 07:58N 37°57' E 023°36'0 0.0
2017-Sep-16 07:28N 37°57' E 023°36'0 0.0
2017-Sep-16 06:58N 37°57' E 023°36'0 0.0
2017-Sep-16 06:28N 37°57' E 023°36'0 0.0
2017-Sep-16 05:58N 37°57' E 023°36'0 0.0
2017-Sep-16 05:28N 37°57' E 023°36'0 0.0
2017-Sep-16 04:58N 37°57' E 023°36'0 0.0
2017-Sep-16 04:28N 37°57' E 023°36'0 0.0
2017-Sep-16 03:58N 37°57' E 023°36'0 0.0
2017-Sep-16 03:28N 37°57' E 023°36'0 0.0
2017-Sep-16 02:58N 37°57' E 023°36'0 0.0
2017-Sep-16 02:28N 37°57' E 023°36'0 0.0
2017-Sep-16 01:58N 37°57' E 023°36'0 0.0
2017-Sep-16 01:28N 37°57' E 023°36'0 0.0
2017-Sep-16 00:58N 37°57' E 023°36'0 0.0
2017-Sep-16 00:28N 37°57' E 023°36'0 0.0
2017-Sep-15 23:58N 37°57' E 023°36'0 0.0
2017-Sep-15 23:28N 37°57' E 023°36'0 0.0
2017-Sep-15 22:58N 37°57' E 023°36'0 0.0
2017-Sep-15 22:28N 37°57' E 023°36'0 0.0
2017-Sep-15 21:58N 37°57' E 023°36'0 0.0
2017-Sep-15 21:28N 37°57' E 023°36'0 0.0
2017-Sep-15 20:58N 37°57' E 023°36'0 0.0
2017-Sep-15 20:28N 37°57' E 023°36'0 0.0
2017-Sep-15 19:58N 37°57' E 023°36'0 0.0
2017-Sep-15 19:28N 37°57' E 023°36'0 0.0
2017-Sep-15 18:58N 37°57' E 023°36'0 0.0
2017-Sep-15 18:28N 37°57' E 023°36'0 0.0
2017-Sep-15 17:55N 37°57' E 023°36'0 0.0
2017-Sep-15 17:28N 37°57' E 023°36'0 0.0
2017-Sep-15 16:58N 37°57' E 023°36'0 0.0
2017-Sep-15 16:28N 37°57' E 023°36'0 0.0
2017-Sep-15 15:58N 37°57' E 023°36'0 0.0
2017-Sep-15 15:28N 37°57' E 023°36'  
Track history (hours):
 
Tides and Currents Weather Stations Pressure Air Temp Water Temp Dewpoint Dewpoint Depression Visibility Wind Speed Wind Dir Waves Ship Positions

Mariana

Last reported at 2017-Sep-25 15:00 UTC. Time now 2017-Sep-25 15:04 UTC.
Position N 39°20' W 009°51'.

Length 180 m; draft 6.3 m.

Type: Cargo ship. MMSI: 373923000.

Date/timePositionNaut miles runAvg speedWind from/ knotsBaromVisibWave heightAir tempDewpointWater temp
2017-Sep-25 15:00N 39°20' W 009°51'612.6
2017-Sep-25 14:30N 39°14' W 009°51'612.4
2017-Sep-25 14:00N 39°08' W 009°51'612.7
2017-Sep-25 13:30N 39°02' W 009°51'612.8
2017-Sep-25 13:01N 38°55' W 009°51'612.5
2017-Sep-25 12:31N 38°49' W 009°51'612.7
2017-Sep-25 12:00N 38°43' W 009°51'612.6
2017-Sep-25 11:30N 38°36' W 009°49'612.4
2017-Sep-25 11:00N 38°30' W 009°48'612.0
2017-Sep-25 10:30N 38°25' W 009°46'611.9
2017-Sep-25 10:00N 38°19' W 009°44'612.2
2017-Sep-25 09:30N 38°13' W 009°42'612.1
2017-Sep-25 09:00N 38°07' W 009°41'611.6
2017-Sep-25 08:30N 38°01' W 009°39'612.0
2017-Sep-25 08:00N 37°56' W 009°36'611.5
2017-Sep-25 07:28N 37°50' W 009°34'511.4
2017-Sep-25 07:00N 37°44' W 009°33'612.2
2017-Sep-25 06:30N 37°38' W 009°32'712.3
2017-Sep-25 05:55N 37°31' W 009°30'612.4
2017-Sep-25 05:27N 37°26' W 009°29'611.8
2017-Sep-25 04:59N 37°20' W 009°27'612.2
2017-Sep-25 04:30N 37°15' W 009°25'1412.5
2017-Sep-25 03:22N 37°01' W 009°22'412.1
2017-Sep-25 03:00N 36°56' W 009°20'611.8
2017-Sep-25 02:30N 36°51' W 009°17'612.3
2017-Sep-25 02:00N 36°47' W 009°12'611.6
2017-Sep-25 01:30N 36°43' W 009°06'612.0
2017-Sep-25 01:00N 36°42' W 008°59'611.8
2017-Sep-25 00:30N 36°40' W 008°52'611.9
2017-Sep-25 00:00N 36°38' W 008°45'612.0
2017-Sep-24 23:30N 36°36' W 008°38'612.4
2017-Sep-24 22:59N 36°34' W 008°30'612.2
2017-Sep-24 22:30N 36°32' W 008°23'1212.6
2017-Sep-24 21:32N 36°29' W 008°09'013.0
2017-Sep-24 21:30N 36°28' W 008°08'612.8
2017-Sep-24 21:00N 36°26' W 008°01'1012.6
2017-Sep-24 20:12N 36°23' W 007°49'513.3
2017-Sep-24 19:49N 36°22' W 007°43'513.7
2017-Sep-24 19:29N 36°20' W 007°37'10213.6
2017-Sep-24 11:57N 35°59' W 005°33'612.7
2017-Sep-24 11:31N 36°00' W 005°27'612.3
2017-Sep-24 11:01N 36°02' W 005°19'612.9
2017-Sep-24 10:31N 36°04' W 005°12'  
2017-Sep-21 14:12N 36°41' E 013°33'712.6
2017-Sep-21 13:38N 36°39' E 013°41'212.4
2017-Sep-21 13:30N 36°38' E 013°43'612.2
2017-Sep-21 13:00N 36°36' E 013°50'612.1
2017-Sep-21 12:30N 36°34' E 013°58'612.2
2017-Sep-21 12:00N 36°33' E 014°05'612.3
2017-Sep-21 11:30N 36°31' E 014°12'612.4
2017-Sep-21 11:00N 36°29' E 014°20'612.2
2017-Sep-21 10:30N 36°28' E 014°27'612.3
2017-Sep-21 10:00N 36°26' E 014°34'612.4
2017-Sep-21 09:30N 36°24' E 014°42'41212.6
2017-Sep-20 00:50N 36°24' E 023°13'411.4
2017-Sep-20 00:29N 36°26' E 023°17'612.4
2017-Sep-20 00:00N 36°30' E 023°23'612.6
2017-Sep-19 23:30N 36°35' E 023°29'612.6
2017-Sep-19 23:01N 36°39' E 023°34'612.7
2017-Sep-19 22:31N 36°44' E 023°40'612.6
2017-Sep-19 22:00N 36°49' E 023°43'612.5
2017-Sep-19 21:31N 36°56' E 023°43'612.1
2017-Sep-19 21:00N 37°02' E 023°43'611.7
2017-Sep-19 20:31N 37°07' E 023°43'611.7
2017-Sep-19 20:01N 37°13' E 023°43'611.7
2017-Sep-19 19:31N 37°19' E 023°43'612.2
2017-Sep-19 19:00N 37°25' E 023°43'612.7
2017-Sep-19 18:31N 37°32' E 023°43'612.6
2017-Sep-19 18:01N 37°38' E 023°43'612.5
2017-Sep-19 17:31N 37°44' E 023°40'612.6
2017-Sep-19 17:00N 37°49' E 023°36'4 8.1
2017-Sep-19 16:31N 37°50' E 023°31'0 0.7
2017-Sep-19 16:01N 37°50' E 023°31'0 0.0
2017-Sep-19 15:29N 37°50' E 023°31'0 0.0
2017-Sep-19 14:59N 37°50' E 023°31'0 0.3
2017-Sep-19 14:29N 37°50' E 023°31'0 0.2
2017-Sep-19 13:59N 37°50' E 023°31'0 0.0
2017-Sep-19 13:29N 37°50' E 023°31'0 0.0
2017-Sep-19 12:59N 37°50' E 023°31'0 0.1
2017-Sep-19 12:29N 37°50' E 023°31'0 0.0
2017-Sep-19 11:59N 37°50' E 023°31'0 0.0
2017-Sep-19 11:29N 37°50' E 023°31'0 0.1
2017-Sep-19 10:59N 37°50' E 023°31'0 0.1
2017-Sep-19 10:29N 37°50' E 023°31'0 0.0
2017-Sep-19 09:07N 37°50' E 023°31'0 0.1
2017-Sep-19 08:58N 37°50' E 023°31'0 0.0
2017-Sep-19 08:28N 37°50' E 023°31'0 0.0
2017-Sep-19 07:58N 37°50' E 023°31'0 0.0
2017-Sep-19 07:29N 37°50' E 023°31'0 0.0
2017-Sep-19 06:58N 37°50' E 023°31'0 0.0
2017-Sep-19 06:28N 37°50' E 023°31'0 0.0
2017-Sep-19 05:58N 37°50' E 023°31'0 0.1
2017-Sep-19 05:28N 37°50' E 023°31'0 0.1
2017-Sep-19 04:58N 37°50' E 023°31'0 0.0
2017-Sep-19 04:28N 37°50' E 023°31'0 0.0
2017-Sep-19 03:58N 37°50' E 023°31'0 0.0
2017-Sep-19 03:28N 37°50' E 023°31'0 0.0
2017-Sep-19 02:58N 37°50' E 023°31'0 0.0
2017-Sep-19 02:28N 37°50' E 023°31'0 0.0
2017-Sep-19 01:58N 37°50' E 023°31'0 0.0
2017-Sep-19 01:28N 37°50' E 023°31'0 0.0
2017-Sep-19 00:58N 37°50' E 023°31'0 0.0
2017-Sep-19 00:28N 37°50' E 023°31'0 0.0
2017-Sep-18 23:58N 37°50' E 023°31'0 0.0
2017-Sep-18 23:28N 37°50' E 023°31'0 0.0
2017-Sep-18 22:58N 37°50' E 023°31'0 0.0
2017-Sep-18 22:28N 37°50' E 023°31'0 0.0
2017-Sep-18 21:58N 37°50' E 023°31'0 0.0
2017-Sep-18 21:28N 37°50' E 023°31'0 0.0
2017-Sep-18 20:58N 37°50' E 023°31'0 0.0
2017-Sep-18 20:28N 37°50' E 023°31'0 0.0
2017-Sep-18 19:58N 37°50' E 023°31'0 0.0
2017-Sep-18 19:28N 37°50' E 023°31'0 0.0
2017-Sep-18 18:58N 37°50' E 023°31'0 0.0
2017-Sep-18 18:28N 37°50' E 023°31'0 0.1
2017-Sep-18 17:58N 37°50' E 023°31'0 0.2
2017-Sep-18 17:28N 37°50' E 023°31'0 0.0
2017-Sep-18 16:58N 37°50' E 023°31'0 0.2
2017-Sep-18 16:28N 37°50' E 023°31'1 1.1
2017-Sep-18 16:01N 37°50' E 023°31'2 4.3
2017-Sep-18 15:31N 37°51' E 023°32'4 7.6
2017-Sep-18 15:00N 37°54' E 023°35'2 4.3
2017-Sep-18 14:31N 37°57' E 023°36'1 1.1
2017-Sep-18 13:59N 37°57' E 023°36'0 0.2
2017-Sep-18 13:29N 37°57' E 023°36'0 0.0
2017-Sep-18 12:59N 37°57' E 023°36'0 0.0
2017-Sep-18 12:29N 37°57' E 023°36'0 0.0
2017-Sep-18 11:56N 37°57' E 023°36'0 0.0
2017-Sep-18 11:29N 37°57' E 023°36'0 0.0
2017-Sep-18 10:59N 37°57' E 023°36'0 0.0
2017-Sep-18 10:29N 37°57' E 023°36'0 0.0
2017-Sep-18 09:59N 37°57' E 023°36'0 0.0
2017-Sep-18 09:29N 37°57' E 023°36'0 0.0
2017-Sep-18 08:59N 37°57' E 023°36'0 0.0
2017-Sep-18 08:29N 37°57' E 023°36'0 0.0
2017-Sep-18 07:59N 37°57' E 023°36'0 0.0
2017-Sep-18 07:29N 37°57' E 023°36'0 0.0
2017-Sep-18 06:59N 37°57' E 023°36'0 0.0
2017-Sep-18 06:29N 37°57' E 023°36'0 0.0
2017-Sep-18 05:59N 37°57' E 023°36'0 0.0
2017-Sep-18 05:29N 37°57' E 023°36'0 0.0
2017-Sep-18 04:59N 37°57' E 023°36'0 0.0
2017-Sep-18 04:29N 37°57' E 023°36'0 0.0
2017-Sep-18 03:59N 37°57' E 023°36'0 0.0
2017-Sep-18 03:29N 37°57' E 023°36'0 0.0
2017-Sep-18 02:59N 37°57' E 023°36'0 0.0
2017-Sep-18 02:29N 37°57' E 023°36'0 0.0
2017-Sep-18 01:59N 37°57' E 023°36'0 0.0
2017-Sep-18 01:29N 37°57' E 023°36'0 0.0
2017-Sep-18 00:59N 37°57' E 023°36'0 0.0
2017-Sep-18 00:29N 37°57' E 023°36'0 0.0
2017-Sep-17 23:59N 37°57' E 023°36'0 0.0
2017-Sep-17 23:29N 37°57' E 023°36'0 0.0
2017-Sep-17 22:59N 37°57' E 023°36'0 0.0
2017-Sep-17 22:29N 37°57' E 023°36'0 0.0
2017-Sep-17 21:59N 37°57' E 023°36'0 0.0
2017-Sep-17 21:29N 37°57' E 023°36'0 0.0
2017-Sep-17 20:59N 37°57' E 023°36'0 0.0
2017-Sep-17 20:29N 37°57' E 023°36'0 0.0
2017-Sep-17 19:59N 37°57' E 023°36'0 0.0
2017-Sep-17 19:29N 37°57' E 023°36'0 0.0
2017-Sep-17 18:59N 37°57' E 023°36'0 0.0
2017-Sep-17 18:29N 37°57' E 023°36'0 0.0
2017-Sep-17 17:59N 37°57' E 023°36'0 0.0
2017-Sep-17 17:29N 37°57' E 023°36'0 0.0
2017-Sep-17 16:59N 37°57' E 023°36'0 0.0
2017-Sep-17 16:29N 37°57' E 023°36'0 0.0
2017-Sep-17 15:59N 37°57' E 023°36'0 0.0
2017-Sep-17 15:29N 37°57' E 023°36'0 0.0
2017-Sep-17 14:59N 37°57' E 023°36'0 0.0
2017-Sep-17 14:29N 37°57' E 023°36'0 0.0
2017-Sep-17 13:59N 37°57' E 023°36'0 0.0
2017-Sep-17 13:29N 37°57' E 023°36'0 0.0
2017-Sep-17 12:59N 37°57' E 023°36'0 0.0
2017-Sep-17 12:29N 37°57' E 023°36'0 0.0
2017-Sep-17 11:59N 37°57' E 023°36'0 0.0
2017-Sep-17 11:29N 37°57' E 023°36'0 0.0
2017-Sep-17 10:59N 37°57' E 023°36'0 0.0
2017-Sep-17 10:29N 37°57' E 023°36'0 0.0
2017-Sep-17 09:59N 37°57' E 023°36'0 0.0
2017-Sep-17 09:29N 37°57' E 023°36'0 0.0
2017-Sep-17 08:58N 37°57' E 023°36'0 0.0
2017-Sep-17 08:28N 37°57' E 023°36'0 0.0
2017-Sep-17 07:58N 37°57' E 023°36'0 0.0
2017-Sep-17 07:28N 37°57' E 023°36'0 0.0
2017-Sep-17 06:58N 37°57' E 023°36'0 0.0
2017-Sep-17 06:28N 37°57' E 023°36'0 0.0
2017-Sep-17 05:58N 37°57' E 023°36'0 0.0
2017-Sep-17 05:28N 37°57' E 023°36'0 0.0
2017-Sep-17 04:59N 37°57' E 023°36'0 0.0
2017-Sep-17 04:28N 37°57' E 023°36'0 0.0
2017-Sep-17 03:58N 37°57' E 023°36'0 0.0
2017-Sep-17 03:28N 37°57' E 023°36'0 0.0
2017-Sep-17 02:58N 37°57' E 023°36'0 0.0
2017-Sep-17 02:28N 37°57' E 023°36'0 0.0
2017-Sep-17 01:58N 37°57' E 023°36'0 0.0
2017-Sep-17 01:28N 37°57' E 023°36'0 0.0
2017-Sep-17 00:58N 37°57' E 023°36'0 0.0
2017-Sep-17 00:28N 37°57' E 023°36'0 0.0
2017-Sep-16 23:58N 37°57' E 023°36'0 0.0
2017-Sep-16 23:28N 37°57' E 023°36'0 0.0
2017-Sep-16 22:58N 37°57' E 023°36'0 0.0
2017-Sep-16 22:28N 37°57' E 023°36'0 0.0
2017-Sep-16 21:58N 37°57' E 023°36'0 0.0
2017-Sep-16 21:28N 37°57' E 023°36'0 0.0
2017-Sep-16 20:58N 37°57' E 023°36'0 0.0
2017-Sep-16 20:28N 37°57' E 023°36'0 0.0
2017-Sep-16 19:58N 37°57' E 023°36'0 0.0
2017-Sep-16 19:28N 37°57' E 023°36'0 0.0
2017-Sep-16 18:58N 37°57' E 023°36'0 0.0
2017-Sep-16 18:28N 37°57' E 023°36'0 0.0
2017-Sep-16 17:58N 37°57' E 023°36'0 0.0
2017-Sep-16 17:28N 37°57' E 023°36'0 0.0
2017-Sep-16 16:58N 37°57' E 023°36'0 0.0
2017-Sep-16 16:25N 37°57' E 023°36'0 0.0
2017-Sep-16 15:58N 37°57' E 023°36'0 0.0
2017-Sep-16 15:28N 37°57' E 023°36'0 0.0
2017-Sep-16 14:58N 37°57' E 023°36'0 0.0
2017-Sep-16 14:28N 37°57' E 023°36'0 0.0
2017-Sep-16 13:58N 37°57' E 023°36'0 0.0
2017-Sep-16 13:28N 37°57' E 023°36'0 0.0
2017-Sep-16 12:58N 37°57' E 023°36'0 0.0
2017-Sep-16 12:28N 37°57' E 023°36'0 0.0
2017-Sep-16 11:58N 37°57' E 023°36'0 0.0
2017-Sep-16 11:28N 37°57' E 023°36'0 0.0
2017-Sep-16 10:58N 37°57' E 023°36'0 0.0
2017-Sep-16 10:28N 37°57' E 023°36'0 0.0
2017-Sep-16 09:58N 37°57' E 023°36'0 0.0
2017-Sep-16 09:28N 37°57' E 023°36'0 0.0
2017-Sep-16 08:58N 37°57' E 023°36'0 0.0
2017-Sep-16 08:28N 37°57' E 023°36'0 0.0
2017-Sep-16 07:58N 37°57' E 023°36'0 0.0
2017-Sep-16 07:28N 37°57' E 023°36'0 0.0
2017-Sep-16 06:58N 37°57' E 023°36'0 0.0
2017-Sep-16 06:28N 37°57' E 023°36'0 0.0
2017-Sep-16 05:58N 37°57' E 023°36'0 0.0
2017-Sep-16 05:28N 37°57' E 023°36'0 0.0
2017-Sep-16 04:58N 37°57' E 023°36'0 0.0
2017-Sep-16 04:28N 37°57' E 023°36'0 0.0
2017-Sep-16 03:58N 37°57' E 023°36'0 0.0
2017-Sep-16 03:28N 37°57' E 023°36'0 0.0
2017-Sep-16 02:58N 37°57' E 023°36'0 0.0
2017-Sep-16 02:28N 37°57' E 023°36'0 0.0
2017-Sep-16 01:58N 37°57' E 023°36'0 0.0
2017-Sep-16 01:28N 37°57' E 023°36'0 0.0
2017-Sep-16 00:58N 37°57' E 023°36'0 0.0
2017-Sep-16 00:28N 37°57' E 023°36'0 0.0
2017-Sep-15 23:58N 37°57' E 023°36'0 0.0
2017-Sep-15 23:28N 37°57' E 023°36'0 0.0
2017-Sep-15 22:58N 37°57' E 023°36'0 0.0
2017-Sep-15 22:28N 37°57' E 023°36'0 0.0
2017-Sep-15 21:58N 37°57' E 023°36'0 0.0
2017-Sep-15 21:28N 37°57' E 023°36'0 0.0
2017-Sep-15 20:58N 37°57' E 023°36'0 0.0
2017-Sep-15 20:28N 37°57' E 023°36'0 0.0
2017-Sep-15 19:58N 37°57' E 023°36'0 0.0
2017-Sep-15 19:28N 37°57' E 023°36'0 0.0
2017-Sep-15 18:58N 37°57' E 023°36'0 0.0
2017-Sep-15 18:28N 37°57' E 023°36'0 0.0
2017-Sep-15 17:55N 37°57' E 023°36'0 0.0
2017-Sep-15 17:28N 37°57' E 023°36'0 0.0
2017-Sep-15 16:58N 37°57' E 023°36'0 0.0
2017-Sep-15 16:28N 37°57' E 023°36'0 0.0
2017-Sep-15 15:58N 37°57' E 023°36'0 0.0
2017-Sep-15 15:28N 37°57' E 023°36'  

Dump ship's entire track history